createdAt,value
2024-04-24T00:03:06.626Z,73.30
2024-04-24T00:08:17.175Z,73.60
2024-04-24T00:13:25.305Z,74.30
2024-04-24T00:18:30.722Z,72.90
2024-04-24T00:23:38.762Z,73.60
2024-04-24T00:28:44.103Z,73.20
2024-04-24T00:33:49.522Z,73.90
2024-04-24T00:38:57.825Z,73.40
2024-04-24T00:44:03.225Z,73.50
2024-04-24T00:49:09.710Z,73.50
2024-04-24T00:54:18.035Z,72.50
2024-04-24T00:59:23.435Z,73.10
2024-04-24T01:04:28.815Z,73.10
2024-04-24T01:09:36.951Z,73.30
2024-04-24T01:14:42.347Z,73.10
2024-04-24T01:19:49.715Z,72.80
2024-04-24T01:25:04.547Z,73.10
2024-04-24T01:30:12.902Z,72.70
2024-04-24T01:35:18.660Z,72.90
2024-04-24T01:40:24.151Z,72.20
2024-04-24T01:45:32.108Z,72.70
2024-04-24T01:50:37.522Z,74.70
2024-04-24T01:55:42.931Z,73.90
2024-04-24T02:00:50.934Z,73.40
2024-04-24T02:05:56.244Z,73.70
2024-04-24T02:11:01.604Z,74.20
2024-04-24T02:16:09.808Z,74.10
2024-04-24T02:21:15.135Z,74.30
2024-04-24T02:26:20.525Z,73.80
2024-04-24T02:31:28.556Z,75.30
2024-04-24T02:36:33.850Z,75.60
2024-04-24T02:41:39.159Z,76.20
2024-04-24T02:46:47.108Z,75.20
2024-04-24T02:51:52.426Z,75.10
2024-04-24T02:56:57.709Z,76.20
2024-04-24T03:02:05.720Z,75.90
2024-04-24T03:07:11.184Z,77.40
2024-04-24T03:12:16.553Z,76.20
2024-04-24T03:17:24.627Z,76.80
2024-04-24T03:22:32.945Z,75.90
2024-04-24T03:27:38.239Z,75.80
2024-04-24T03:32:46.163Z,75.80
2024-04-24T03:37:51.632Z,76.10
2024-04-24T03:42:56.948Z,75.70
2024-04-24T03:48:04.956Z,77.20
2024-04-24T03:53:10.350Z,77.20
2024-04-24T03:58:15.769Z,76.80
2024-04-24T04:03:23.708Z,75.90
2024-04-24T04:08:29.073Z,76.80
2024-04-24T04:13:34.397Z,77.10
2024-04-24T04:18:42.397Z,77.40
2024-04-24T04:23:47.776Z,77.20
2024-04-24T04:28:53.136Z,76.90
2024-04-24T04:34:01.125Z,76.40
2024-04-24T04:39:07.758Z,77.20
2024-04-24T04:44:13.090Z,77.40
2024-04-24T04:49:21.072Z,78.30
2024-04-24T04:54:26.375Z,78.60
2024-04-24T04:59:31.711Z,78.20
2024-04-24T05:04:39.666Z,78.10
2024-04-24T05:09:45.033Z,77.60
2024-04-24T05:14:52.124Z,78.10
2024-04-24T05:20:00.101Z,76.60
2024-04-24T05:25:05.511Z,77.20
2024-04-24T05:30:11.271Z,76.90
2024-04-24T05:35:19.243Z,78.10
2024-04-24T05:40:24.626Z,77.70
2024-04-24T05:45:29.911Z,77.70
2024-04-24T05:50:37.836Z,77.20
2024-04-24T05:55:43.163Z,77.30
2024-04-24T06:00:48.526Z,76.40
2024-04-24T06:05:56.444Z,76.40
2024-04-24T06:11:01.930Z,77.00
2024-04-24T06:16:08.186Z,76.50
2024-04-24T06:21:16.114Z,76.30
2024-04-24T06:26:21.549Z,76.50
2024-04-24T06:31:27.035Z,76.10
2024-04-24T06:36:35.077Z,75.80
2024-04-24T06:41:40.864Z,75.60
2024-04-24T06:46:46.275Z,75.40
2024-04-24T06:51:55.598Z,75.20
2024-04-24T06:57:01.011Z,75.40
2024-04-24T07:02:06.525Z,75.50
2024-04-24T07:07:14.676Z,75.60
2024-04-24T07:12:20.301Z,75.30
2024-04-24T07:17:25.787Z,75.20
2024-04-24T07:22:33.824Z,75.30
2024-04-24T07:27:39.209Z,75.20
2024-04-24T07:32:44.552Z,74.90
2024-04-24T07:37:52.690Z,75.10
2024-04-24T07:42:58.106Z,74.90
2024-04-24T07:48:03.652Z,74.90
2024-04-24T07:53:11.761Z,74.40
2024-04-24T07:58:17.053Z,74.90
2024-04-24T08:03:22.627Z,74.60
2024-04-24T08:08:31.824Z,74.40
2024-04-24T08:13:37.275Z,74.60
2024-04-24T08:18:42.662Z,74.70
2024-04-24T08:23:50.742Z,75.20
2024-04-24T08:28:56.569Z,75.30
2024-04-24T08:34:02.040Z,75.70
2024-04-24T08:39:12.253Z,76.80
2024-04-24T08:44:18.494Z,75.70
2024-04-24T08:49:24.933Z,77.00
2024-04-24T08:54:35.781Z,77.10
2024-04-24T08:59:45.545Z,76.90
2024-04-24T09:04:52.593Z,78.10
2024-04-24T09:10:01.724Z,77.70
2024-04-24T09:15:07.713Z,78.40
2024-04-24T09:20:15.027Z,78.10
2024-04-24T09:25:23.248Z,77.60
2024-04-24T09:30:30.509Z,78.40
2024-04-24T09:35:35.950Z,78.50
2024-04-24T09:40:43.960Z,78.30
2024-04-24T09:45:51.294Z,78.20
2024-04-24T09:50:56.874Z,78.70
2024-04-24T09:56:12.162Z,78.60
2024-04-24T10:01:22.891Z,78.80
2024-04-24T10:06:31.343Z,78.40
2024-04-24T10:11:58.965Z,78.20
2024-04-24T10:17:05.620Z,78.00
2024-04-24T10:22:11.237Z,78.20
2024-04-24T10:27:21.639Z,77.70
2024-04-24T10:32:31.998Z,79.10
2024-04-24T10:37:37.372Z,80.80
2024-04-24T10:42:45.627Z,80.40
2024-04-24T10:47:51.817Z,81.20
2024-04-24T10:52:58.892Z,82.00
2024-04-24T10:58:23.268Z,81.30
2024-04-24T11:03:29.019Z,80.90
2024-04-24T11:08:35.118Z,81.10
2024-04-24T11:13:43.325Z,79.80
2024-04-24T11:18:48.839Z,79.50
2024-04-24T11:23:54.330Z,79.10
2024-04-24T11:29:05.037Z,78.60
2024-04-24T11:34:11.838Z,78.40
2024-04-24T11:39:20.766Z,77.00
2024-04-24T11:44:30.176Z,77.00
2024-04-24T11:49:38.325Z,76.10
2024-04-24T11:54:43.649Z,74.70
2024-04-24T11:59:54.661Z,74.80
2024-04-24T12:05:00.221Z,74.60
2024-04-24T12:10:08.624Z,74.70
2024-04-24T12:15:17.923Z,77.00
2024-04-24T12:20:23.308Z,78.40
2024-04-24T12:25:28.659Z,77.10
2024-04-24T12:30:36.737Z,75.80
2024-04-24T12:35:42.822Z,76.20
2024-04-24T12:40:48.157Z,75.70
2024-04-24T12:45:56.109Z,73.50
2024-04-24T12:51:01.722Z,73.20
2024-04-24T12:56:08.228Z,73.20
2024-04-24T13:01:24.152Z,72.60
2024-04-24T13:06:30.226Z,72.10
2024-04-24T13:11:35.757Z,72.90
2024-04-24T13:16:43.853Z,72.50
2024-04-24T13:21:49.146Z,71.80
2024-04-24T13:26:54.611Z,72.00
2024-04-24T13:32:02.567Z,70.50
2024-04-24T13:37:08.340Z,71.00
2024-04-24T13:42:13.745Z,72.50
2024-04-24T13:47:23.255Z,74.30
2024-04-24T13:52:28.634Z,76.00
2024-04-24T13:57:34.037Z,76.20
2024-04-24T14:02:42.123Z,78.50
2024-04-24T14:07:47.688Z,78.50
2024-04-24T14:12:52.989Z,79.20
2024-04-24T14:18:01.317Z,80.20
2024-04-24T14:23:07.046Z,77.50
2024-04-24T14:28:13.851Z,76.30
2024-04-24T14:33:21.857Z,76.00
2024-04-24T14:38:27.581Z,76.50
2024-04-24T14:43:33.153Z,75.40
2024-04-24T14:48:41.410Z,74.90
2024-04-24T14:53:46.991Z,72.20
2024-04-24T14:58:52.412Z,73.00
2024-04-24T15:04:00.718Z,73.70
2024-04-24T15:09:06.186Z,73.40
2024-04-24T15:14:11.587Z,74.70
2024-04-24T15:19:20.109Z,72.00
2024-04-24T15:24:25.584Z,72.00
2024-04-24T15:29:31.087Z,71.50
2024-04-24T15:34:39.047Z,72.10
2024-04-24T15:39:44.525Z,72.40
2024-04-24T15:44:49.880Z,71.90
2024-04-24T15:49:57.817Z,73.70
2024-04-24T15:55:03.384Z,75.00
2024-04-24T16:00:12.949Z,75.90
2024-04-24T16:05:20.918Z,76.10
2024-04-24T16:10:26.217Z,76.90
2024-04-24T16:15:31.515Z,76.50
2024-04-24T16:20:39.478Z,78.80
2024-04-24T16:25:44.911Z,79.50
2024-04-24T16:30:50.232Z,80.10
2024-04-24T16:35:59.645Z,80.60
2024-04-24T16:41:06.252Z,79.40
2024-04-24T16:46:12.140Z,80.20
2024-04-24T16:51:20.183Z,79.20
2024-04-24T16:56:25.485Z,80.10
2024-04-24T17:01:30.781Z,79.80
2024-04-24T17:06:38.783Z,80.40
2024-04-24T17:11:44.137Z,81.00
2024-04-24T17:16:49.532Z,81.70
2024-04-24T17:21:57.517Z,82.10
2024-04-24T17:27:02.943Z,82.50
2024-04-24T17:32:08.795Z,84.80
2024-04-24T17:37:17.327Z,82.80
2024-04-24T17:42:22.810Z,82.80
2024-04-24T17:47:28.826Z,81.80
2024-04-24T17:52:36.807Z,82.00
2024-04-24T17:57:42.099Z,81.30
2024-04-24T18:02:48.229Z,81.60
2024-04-24T18:07:56.794Z,81.40
2024-04-24T18:13:03.584Z,82.40
2024-04-24T18:18:09.125Z,82.60
2024-04-24T18:23:17.294Z,82.50
2024-04-24T18:28:24.220Z,82.90
2024-04-24T18:33:29.665Z,83.50
2024-04-24T18:38:37.754Z,83.70
2024-04-24T18:43:46.091Z,83.60
2024-04-24T18:48:51.541Z,83.70
2024-04-24T18:54:00.303Z,84.60
2024-04-24T18:59:05.844Z,84.40
2024-04-24T19:04:14.078Z,84.60
2024-04-24T19:09:22.123Z,83.70
2024-04-24T19:14:27.450Z,84.00
2024-04-24T19:19:33.002Z,85.10
2024-04-24T19:24:43.540Z,84.60
2024-04-24T19:29:48.831Z,84.90
2024-04-24T19:34:54.133Z,85.00
2024-04-24T19:40:02.065Z,85.00
2024-04-24T19:45:07.962Z,84.70
2024-04-24T19:50:13.309Z,85.30
2024-04-24T19:55:21.283Z,85.40
2024-04-24T20:00:27.394Z,85.20
2024-04-24T20:05:33.453Z,84.80
2024-04-24T20:10:41.509Z,85.10
2024-04-24T20:15:46.833Z,85.10
2024-04-24T20:20:52.124Z,84.70
2024-04-24T20:26:00.172Z,85.20
2024-04-24T20:31:06.608Z,85.40
2024-04-24T20:36:17.009Z,85.10
2024-04-24T20:41:25.003Z,84.90
2024-04-24T20:46:30.351Z,85.20
2024-04-24T20:51:35.711Z,85.20
2024-04-24T20:56:43.707Z,85.00
2024-04-24T21:01:49.155Z,84.90
2024-04-24T21:06:54.426Z,85.10
2024-04-24T21:12:02.526Z,85.40
2024-04-24T21:17:07.884Z,85.30
2024-04-24T21:22:13.206Z,85.70
2024-04-24T21:27:21.108Z,85.50
2024-04-24T21:32:28.677Z,85.70
2024-04-24T21:37:36.665Z,85.80
2024-04-24T21:42:45.484Z,86.00
2024-04-24T21:47:50.839Z,86.50
2024-04-24T21:52:56.384Z,86.60
2024-04-24T21:58:05.469Z,86.50
2024-04-24T22:03:10.881Z,86.60
2024-04-24T22:08:16.323Z,87.10
2024-04-24T22:13:24.384Z,87.70
2024-04-24T22:18:30.691Z,86.60
2024-04-24T22:23:36.163Z,87.00
2024-04-24T22:28:44.928Z,87.30
2024-04-24T22:33:50.476Z,87.30
2024-04-24T22:38:55.766Z,87.30
2024-04-24T22:44:03.793Z,87.60
2024-04-24T22:49:10.051Z,87.60
2024-04-24T22:54:15.379Z,87.80
2024-04-24T22:59:23.463Z,87.80
2024-04-24T23:04:29.952Z,87.60
2024-04-24T23:09:35.288Z,87.60
2024-04-24T23:14:43.502Z,87.70
2024-04-24T23:19:48.803Z,87.90
2024-04-24T23:24:54.224Z,88.20
2024-04-24T23:30:02.600Z,87.50
2024-04-24T23:35:08.812Z,88.20
2024-04-24T23:40:14.455Z,88.40
2024-04-24T23:45:22.404Z,88.20
2024-04-24T23:50:27.888Z,88.20
2024-04-24T23:55:33.254Z,88.70
